createdAt,value
2022-11-13T00:02:53.495Z,148.80
2022-11-13T00:05:53.690Z,157.48
2022-11-13T00:09:03.331Z,149.45
2022-11-13T00:12:10.306Z,152.32
2022-11-13T00:15:25.434Z,160.68
2022-11-13T00:18:26.884Z,157.43
2022-11-13T00:21:40.409Z,159.65
2022-11-13T00:24:40.719Z,171.05
2022-11-13T00:27:47.350Z,164.90
2022-11-13T00:30:54.313Z,163.85
2022-11-13T00:34:09.525Z,167.63
2022-11-13T00:37:22.398Z,158.00
2022-11-13T00:40:22.729Z,165.23
2022-11-13T00:43:30.460Z,171.73
2022-11-13T00:46:30.879Z,170.95
2022-11-13T00:49:37.403Z,185.23
2022-11-13T00:52:44.423Z,189.48
2022-11-13T00:55:53.311Z,186.77
2022-11-13T00:59:00.348Z,200.05
2022-11-13T01:02:01.600Z,197.02
2022-11-13T01:05:08.407Z,203.52
2022-11-13T01:08:16.413Z,200.80
2022-11-13T01:11:21.720Z,214.05
2022-11-13T01:14:28.346Z,218.30
2022-11-13T01:17:28.676Z,209.00
2022-11-13T01:20:36.417Z,215.38
2022-11-13T01:23:36.746Z,216.77
2022-11-13T01:26:43.346Z,221.18
2022-11-13T01:29:45.813Z,221.32
2022-11-13T01:32:52.336Z,225.65
2022-11-13T01:35:52.698Z,216.68
2022-11-13T01:39:01.329Z,215.40
2022-11-13T01:42:09.384Z,228.90
2022-11-13T01:45:47.568Z,216.75
2022-11-13T01:49:01.382Z,234.18
2022-11-13T01:52:10.985Z,216.88
2022-11-13T01:55:23.327Z,215.57
2022-11-13T01:58:23.964Z,209.52
2022-11-13T02:01:30.493Z,226.57
2022-11-13T02:04:38.424Z,220.60
2022-11-13T02:07:39.722Z,223.70
2022-11-13T02:10:46.343Z,228.20
2022-11-13T02:13:54.438Z,230.75
2022-11-13T02:17:08.298Z,226.40
2022-11-13T02:20:18.485Z,219.48
2022-11-13T02:24:03.279Z,228.45
2022-11-13T02:27:17.391Z,213.95
2022-11-13T02:30:28.240Z,218.68
2022-11-13T02:33:44.750Z,232.23
2022-11-13T02:36:52.485Z,216.65
2022-11-13T02:39:52.682Z,232.18
2022-11-13T02:42:59.402Z,235.52
2022-11-13T02:45:59.696Z,223.95
2022-11-13T02:49:07.376Z,229.90
2022-11-13T02:52:07.670Z,220.43
2022-11-13T02:55:15.299Z,233.32
2022-11-13T02:58:22.512Z,224.82
2022-11-13T03:01:30.361Z,223.35
2022-11-13T03:05:05.389Z,218.63
2022-11-13T03:07:57.563Z,218.60
2022-11-13T03:11:04.414Z,205.35
2022-11-13T03:14:18.238Z,198.73
2022-11-13T03:17:25.484Z,201.43
2022-11-13T03:20:25.671Z,193.70
2022-11-13T03:23:33.401Z,175.43
2022-11-13T03:26:33.659Z,187.20
2022-11-13T03:29:40.403Z,182.35
2022-11-13T03:32:40.704Z,186.60
2022-11-13T03:35:48.403Z,174.32
2022-11-13T03:38:49.679Z,180.57
2022-11-13T03:41:57.386Z,184.35
2022-11-13T03:45:04.385Z,174.10
2022-11-13T03:48:05.876Z,168.85
2022-11-13T03:51:12.430Z,160.75
2022-11-13T03:54:13.606Z,146.35
2022-11-13T03:57:21.376Z,135.25
2022-11-13T04:00:28.361Z,123.90
2022-11-13T04:03:35.383Z,117.95
2022-11-13T04:06:43.364Z,104.40
2022-11-13T04:09:44.714Z,99.15
2022-11-13T04:12:51.279Z,114.18
2022-11-13T04:16:05.251Z,103.40
2022-11-13T04:19:12.390Z,112.57
2022-11-13T04:22:13.676Z,112.32
2022-11-13T04:25:21.358Z,109.63
2022-11-13T04:28:21.724Z,109.60
2022-11-13T04:31:29.386Z,102.88
2022-11-13T04:34:29.678Z,107.28
2022-11-13T04:37:37.375Z,102.97
2022-11-13T04:40:44.300Z,105.07
2022-11-13T04:43:44.573Z,111.22
2022-11-13T04:46:51.313Z,96.53
2022-11-13T04:49:51.559Z,90.55
2022-11-13T04:52:59.307Z,97.47
2022-11-13T04:55:59.688Z,85.63
2022-11-13T04:59:07.382Z,84.80
2022-11-13T05:02:07.824Z,91.55
2022-11-13T05:05:14.356Z,88.45
2022-11-13T05:08:21.385Z,95.65
2022-11-13T05:11:22.813Z,100.90
2022-11-13T05:14:29.377Z,96.88
2022-11-13T05:17:36.364Z,96.07
2022-11-13T05:20:37.576Z,125.05
2022-11-13T05:23:45.381Z,102.43
2022-11-13T05:26:45.624Z,89.07
2022-11-13T05:29:52.375Z,93.60
2022-11-13T05:32:54.164Z,77.25
2022-11-13T05:35:55.373Z,83.00
2022-11-13T05:38:56.729Z,77.82
2022-11-13T05:42:03.299Z,80.43
2022-11-13T05:45:03.678Z,83.13
2022-11-13T05:48:10.268Z,65.85
2022-11-13T05:51:12.627Z,59.47
2022-11-13T05:54:20.392Z,56.00
2022-11-13T05:57:21.643Z,53.97
2022-11-13T06:00:29.376Z,44.80
2022-11-13T06:03:37.380Z,38.35
2022-11-13T06:06:37.801Z,38.80
2022-11-13T06:09:44.380Z,154.32
2022-11-13T06:12:44.527Z,48.78
2022-11-13T06:15:51.371Z,46.58
2022-11-13T06:19:02.367Z,37.83
2022-11-13T06:22:09.348Z,33.63
2022-11-13T06:25:17.379Z,28.38
2022-11-13T06:28:18.842Z,35.17
2022-11-13T06:31:33.390Z,41.70
2022-11-13T06:34:41.379Z,41.38
2022-11-13T06:37:41.536Z,39.50
2022-11-13T06:40:48.285Z,37.78
2022-11-13T06:43:51.979Z,39.20
2022-11-13T06:46:58.369Z,44.50
2022-11-13T06:50:05.275Z,46.47
2022-11-13T06:53:12.280Z,54.40
2022-11-13T06:56:20.359Z,50.30
2022-11-13T06:59:27.280Z,55.42
2022-11-13T07:02:27.555Z,58.55
2022-11-13T07:05:35.364Z,48.55
2022-11-13T07:08:44.380Z,54.50
2022-11-13T07:11:52.389Z,51.83
2022-11-13T07:15:07.371Z,48.97
2022-11-13T07:18:08.387Z,48.55
2022-11-13T07:21:26.368Z,56.35
2022-11-13T07:24:33.372Z,54.08
2022-11-13T07:27:41.258Z,53.85
2022-11-13T07:30:49.372Z,49.15
2022-11-13T07:33:57.374Z,44.22
2022-11-13T07:37:04.376Z,55.58
2022-11-13T07:40:11.297Z,49.65
2022-11-13T07:43:19.385Z,48.25
2022-11-13T07:46:26.376Z,47.10
2022-11-13T07:49:26.591Z,47.30
2022-11-13T07:52:34.298Z,54.45
2022-11-13T07:55:43.389Z,56.33
2022-11-13T07:58:51.458Z,62.05
2022-11-13T08:01:52.837Z,62.42
2022-11-13T08:05:00.293Z,40.00
2022-11-13T08:08:01.820Z,49.80
2022-11-13T08:11:08.295Z,52.25
2022-11-13T08:14:22.237Z,60.38
2022-11-13T08:17:29.291Z,45.47
2022-11-13T08:20:30.638Z,43.28
2022-11-13T08:23:37.317Z,37.35
2022-11-13T08:26:37.671Z,31.95
2022-11-13T08:29:45.278Z,34.72
2022-11-13T08:32:53.403Z,29.60
2022-11-13T08:35:55.558Z,27.92
2022-11-13T08:39:03.433Z,31.10
2022-11-13T08:42:04.973Z,46.78
2022-11-13T08:45:11.380Z,40.15
2022-11-13T08:48:19.304Z,31.95
2022-11-13T08:51:26.282Z,33.53
2022-11-13T08:54:33.398Z,33.13
2022-11-13T08:57:33.724Z,45.55
2022-11-13T09:00:41.311Z,25.90
2022-11-13T09:03:49.392Z,27.90
2022-11-13T09:06:56.414Z,34.80
2022-11-13T09:10:03.526Z,28.80
2022-11-13T09:13:13.388Z,32.78
2022-11-13T09:16:26.266Z,35.28
2022-11-13T09:19:34.319Z,34.92
2022-11-13T09:22:35.685Z,30.90
2022-11-13T09:25:45.260Z,24.58
2022-11-13T09:28:45.694Z,34.90
2022-11-13T09:31:52.364Z,27.58
2022-11-13T09:34:52.794Z,30.27
2022-11-13T09:38:00.380Z,28.55
2022-11-13T09:41:13.284Z,42.22
2022-11-13T09:44:42.384Z,27.08
2022-11-13T09:47:49.797Z,28.30
2022-11-13T09:50:57.295Z,24.92
2022-11-13T09:53:58.645Z,32.38
2022-11-13T09:57:10.380Z,27.60
2022-11-13T10:00:28.946Z,28.08
2022-11-13T10:04:08.882Z,29.88
2022-11-13T10:07:31.774Z,23.85
2022-11-13T10:10:55.574Z,23.55
2022-11-13T10:17:39.901Z,26.55
2022-11-13T10:20:52.315Z,22.40
2022-11-13T10:23:58.449Z,22.83
2022-11-13T10:27:07.493Z,25.23
2022-11-13T10:30:17.223Z,26.70
2022-11-13T10:33:33.431Z,25.77
2022-11-13T10:36:51.564Z,23.98
2022-11-13T10:40:02.439Z,23.73
2022-11-13T10:43:19.233Z,27.70
2022-11-13T10:46:38.398Z,29.55
2022-11-13T10:49:39.938Z,29.63
2022-11-13T10:52:47.366Z,25.23
2022-11-13T10:55:58.371Z,22.35
2022-11-13T10:59:10.970Z,33.67
2022-11-13T11:02:28.280Z,30.00
2022-11-13T11:05:39.426Z,24.98
2022-11-13T11:08:47.357Z,27.13
2022-11-13T11:12:06.945Z,26.27
2022-11-13T11:15:31.666Z,23.27
2022-11-13T11:18:49.679Z,26.35
2022-11-13T11:22:03.343Z,24.13
2022-11-13T11:25:21.942Z,22.10
2022-11-13T11:28:44.286Z,29.48
2022-11-13T11:32:11.728Z,25.65
2022-11-13T11:35:30.488Z,33.40
2022-11-13T11:38:49.655Z,23.08
2022-11-13T11:42:18.292Z,25.58
2022-11-13T11:45:39.355Z,31.08
2022-11-13T11:48:39.550Z,33.92
2022-11-13T11:51:56.374Z,29.50
2022-11-13T11:55:21.251Z,37.35
2022-11-13T11:58:40.368Z,29.65
2022-11-13T12:02:14.276Z,41.10
2022-11-13T12:05:42.320Z,40.33
2022-11-13T12:09:12.748Z,40.70
2022-11-13T12:12:25.255Z,39.97
2022-11-13T12:16:03.678Z,46.25
2022-11-13T12:19:13.247Z,47.10
2022-11-13T12:22:40.512Z,52.80
2022-11-13T12:26:20.266Z,45.78
2022-11-13T12:29:46.360Z,56.00
2022-11-13T12:32:49.635Z,67.53
2022-11-13T12:36:01.387Z,61.90
2022-11-13T12:39:37.758Z,64.50
2022-11-13T12:42:59.369Z,61.65
2022-11-13T12:46:10.276Z,71.28
2022-11-13T12:49:35.273Z,71.80
2022-11-13T12:52:35.809Z,68.18
2022-11-13T12:55:46.289Z,75.00
2022-11-13T12:59:03.495Z,78.10
2022-11-13T13:02:17.408Z,73.28
2022-11-13T13:05:46.684Z,82.78
2022-11-13T13:08:58.376Z,71.45
2022-11-13T13:12:33.365Z,78.40
2022-11-13T13:15:52.166Z,92.15
2022-11-13T13:18:53.293Z,91.00
2022-11-13T13:21:54.683Z,76.97
2022-11-13T13:25:14.458Z,76.32
2022-11-13T13:28:22.371Z,84.80
2022-11-13T13:31:51.408Z,87.65
2022-11-13T13:35:00.557Z,78.45
2022-11-13T13:38:29.720Z,78.68
2022-11-13T13:41:32.109Z,77.78
2022-11-13T13:44:47.255Z,90.90
2022-11-13T13:47:50.694Z,88.18
2022-11-13T13:51:02.248Z,90.90
2022-11-13T13:54:08.287Z,83.85
2022-11-13T13:57:16.281Z,93.20
2022-11-13T14:00:27.433Z,100.28
2022-11-13T14:03:30.373Z,92.15
2022-11-13T14:06:37.401Z,95.97
2022-11-13T14:09:46.411Z,115.57
2022-11-13T14:12:48.438Z,99.45
2022-11-13T14:15:56.388Z,95.55
2022-11-13T14:19:13.333Z,91.25
2022-11-13T14:22:25.365Z,93.03
2022-11-13T14:25:29.745Z,120.60
2022-11-13T14:31:38.695Z,95.63
2022-11-13T14:34:46.435Z,103.20
2022-11-13T14:37:49.523Z,102.53
2022-11-13T14:41:02.370Z,115.07
2022-11-13T14:44:03.023Z,110.60
2022-11-13T14:47:34.358Z,117.10
2022-11-13T14:50:37.227Z,107.22
2022-11-13T14:53:56.382Z,119.03
2022-11-13T14:56:56.742Z,108.88
2022-11-13T15:00:03.483Z,111.60
2022-11-13T15:03:14.387Z,121.50
2022-11-13T15:06:29.741Z,121.70
2022-11-13T15:09:38.259Z,102.07
2022-11-13T15:12:45.714Z,119.78
2022-11-13T15:16:00.247Z,110.38
2022-11-13T15:19:11.286Z,116.43
2022-11-13T15:22:26.541Z,116.93
2022-11-13T15:25:35.337Z,118.60
2022-11-13T15:28:35.697Z,116.93
2022-11-13T15:31:46.278Z,128.07
2022-11-13T15:34:46.808Z,125.75
2022-11-13T15:37:53.327Z,123.43
2022-11-13T15:40:53.773Z,127.15
2022-11-13T15:44:03.322Z,129.65
2022-11-13T15:47:03.664Z,138.05
2022-11-13T15:50:14.944Z,120.93
2022-11-13T15:53:26.518Z,127.32
2022-11-13T15:56:26.906Z,129.20
2022-11-13T15:59:34.257Z,142.85
2022-11-13T16:02:36.507Z,137.20
2022-11-13T16:05:43.297Z,144.77
2022-11-13T16:08:45.183Z,132.65
2022-11-13T16:11:52.343Z,132.95
2022-11-13T16:15:07.176Z,151.55
2022-11-13T16:18:29.341Z,135.00
2022-11-13T16:21:37.319Z,129.98
2022-11-13T16:24:37.614Z,128.88
2022-11-13T16:27:44.317Z,138.98
2022-11-13T16:30:45.641Z,125.40
2022-11-13T16:33:53.262Z,122.50
2022-11-13T16:36:54.639Z,130.07
2022-11-13T16:40:01.344Z,125.53
2022-11-13T16:43:02.829Z,130.45
2022-11-13T16:46:09.275Z,134.50
2022-11-13T16:49:09.783Z,130.48
2022-11-13T16:52:16.325Z,128.15
2022-11-13T16:55:23.323Z,131.15
2022-11-13T16:58:30.324Z,124.88
2022-11-13T17:01:38.353Z,125.35
2022-11-13T17:04:39.519Z,136.02
2022-11-13T17:07:46.231Z,126.72
2022-11-13T17:10:47.686Z,120.47
2022-11-13T17:13:55.339Z,121.38
2022-11-13T17:17:01.802Z,132.13
2022-11-13T17:20:02.341Z,136.45
2022-11-13T17:23:09.350Z,122.38
2022-11-13T17:26:11.742Z,119.00
2022-11-13T17:29:18.339Z,142.77
2022-11-13T17:32:18.642Z,117.88
2022-11-13T17:35:25.353Z,106.32
2022-11-13T17:38:26.055Z,124.07
2022-11-13T17:41:33.324Z,112.78
2022-11-13T17:44:33.577Z,116.18
2022-11-13T17:47:42.338Z,110.88
2022-11-13T17:50:42.812Z,106.90
2022-11-13T17:53:50.333Z,117.82
2022-11-13T17:56:50.757Z,110.70
2022-11-13T17:59:58.327Z,116.63
2022-11-13T18:02:58.790Z,115.35
2022-11-13T18:06:05.311Z,110.75
2022-11-13T18:09:12.311Z,105.07
2022-11-13T18:12:12.712Z,116.70
2022-11-13T18:15:20.318Z,111.68
2022-11-13T18:18:28.721Z,101.32
2022-11-13T18:21:32.312Z,102.15
2022-11-13T18:24:39.474Z,94.97
2022-11-13T18:27:47.340Z,102.20
2022-11-13T18:30:50.774Z,104.93
2022-11-13T18:34:04.376Z,99.55
2022-11-13T18:37:05.778Z,89.85
2022-11-13T18:40:12.345Z,97.03
2022-11-13T18:43:20.336Z,102.30
2022-11-13T18:46:22.662Z,99.25
2022-11-13T18:49:29.337Z,97.88
2022-11-13T18:52:29.787Z,95.18
2022-11-13T18:55:36.341Z,95.03
2022-11-13T18:58:44.346Z,100.28
2022-11-13T19:01:44.753Z,96.10
2022-11-13T19:04:52.335Z,99.78
2022-11-13T19:07:52.523Z,92.68
2022-11-13T19:10:59.313Z,89.28
2022-11-13T19:13:59.924Z,87.47
2022-11-13T19:17:06.510Z,88.00
2022-11-13T19:20:08.721Z,91.38
2022-11-13T19:23:15.251Z,83.93
2022-11-13T19:26:22.244Z,82.97
2022-11-13T19:29:22.626Z,86.07
2022-11-13T19:32:29.245Z,87.68
2022-11-13T19:35:29.741Z,117.18
2022-11-13T19:38:36.251Z,142.73
2022-11-13T19:41:37.598Z,165.68
2022-11-13T19:44:44.231Z,170.85
2022-11-13T19:47:52.370Z,169.15
2022-11-13T19:50:53.542Z,161.40
2022-11-13T19:54:01.234Z,185.77
2022-11-13T19:57:01.490Z,181.35
2022-11-13T20:00:08.229Z,168.20
2022-11-13T20:03:09.445Z,145.43
2022-11-13T20:06:16.217Z,143.10
2022-11-13T20:09:16.644Z,142.30
2022-11-13T20:12:24.238Z,146.02
2022-11-13T20:15:25.112Z,133.57
2022-11-13T20:18:32.343Z,149.18
2022-11-13T20:21:32.666Z,148.10
2022-11-13T20:24:39.227Z,157.60
2022-11-13T20:27:47.449Z,145.55
2022-11-13T20:30:47.653Z,139.63
2022-11-13T20:33:56.215Z,131.35
2022-11-13T20:36:56.622Z,117.93
2022-11-13T20:40:05.304Z,117.30
2022-11-13T20:43:12.204Z,94.20
2022-11-13T20:46:21.329Z,95.60
2022-11-13T20:49:23.200Z,103.13
2022-11-13T20:52:31.241Z,102.80
2022-11-13T20:55:38.223Z,86.68
2022-11-13T20:58:39.101Z,85.50
2022-11-13T21:01:46.301Z,82.45
2022-11-13T21:04:47.540Z,80.38
2022-11-13T21:07:54.216Z,67.28
2022-11-13T21:10:54.546Z,75.10
2022-11-13T21:14:03.227Z,63.22
2022-11-13T21:17:17.772Z,55.35
2022-11-13T21:20:18.648Z,57.70
2022-11-13T21:23:25.326Z,57.15
2022-11-13T21:26:33.239Z,56.70
2022-11-13T21:29:40.285Z,54.58
2022-11-13T21:32:41.514Z,51.30
2022-11-13T21:35:48.271Z,53.75
2022-11-13T21:38:51.734Z,51.20
2022-11-13T21:41:58.186Z,55.85
2022-11-13T21:44:59.512Z,47.42
2022-11-13T21:48:08.233Z,47.25
2022-11-13T21:51:15.307Z,44.03
2022-11-13T21:54:16.688Z,41.35
2022-11-13T21:57:24.303Z,39.95
2022-11-13T22:00:25.575Z,39.83
2022-11-13T22:03:32.227Z,45.00
2022-11-13T22:06:40.724Z,39.90
2022-11-13T22:09:48.324Z,45.70
2022-11-13T22:12:48.581Z,43.55
2022-11-13T22:15:55.202Z,41.08
2022-11-13T22:19:11.642Z,45.72
2022-11-13T22:22:11.449Z,46.65
2022-11-13T22:25:19.222Z,50.25
2022-11-13T22:28:20.500Z,43.58
2022-11-13T22:31:47.196Z,49.33
2022-11-13T22:34:48.701Z,46.85
2022-11-13T22:37:55.196Z,49.88
2022-11-13T22:40:55.925Z,49.83
2022-11-13T22:44:08.279Z,48.63
2022-11-13T22:47:09.522Z,58.92
2022-11-13T22:50:16.289Z,49.08
2022-11-13T22:53:16.594Z,54.85
2022-11-13T22:56:28.319Z,49.78
2022-11-13T22:59:35.257Z,62.33
2022-11-13T23:02:47.104Z,53.25
2022-11-13T23:05:55.205Z,56.53
2022-11-13T23:08:56.551Z,52.13
2022-11-13T23:12:03.285Z,55.15
2022-11-13T23:15:10.303Z,50.35
2022-11-13T23:18:16.709Z,55.85
2022-11-13T23:21:19.316Z,52.55
2022-11-13T23:24:26.209Z,55.58
2022-11-13T23:27:33.289Z,59.17
2022-11-13T23:30:34.481Z,56.72
2022-11-13T23:33:42.215Z,60.50
2022-11-13T23:36:43.439Z,57.47
2022-11-13T23:39:51.295Z,55.78
2022-11-13T23:42:55.958Z,53.88
2022-11-13T23:46:03.222Z,61.10
2022-11-13T23:49:10.314Z,57.88
2022-11-13T23:52:10.624Z,50.72
2022-11-13T23:55:18.289Z,51.38
2022-11-13T23:58:22.172Z,55.03
